sensor_id;sensor_type;location;lat;lon;timestamp;pressure;altitude;pressure_sealevel;temperature;humidity
61682;BME280;47577;43.610;25.010;2023-02-19T00:01:11;100450.16;;;10.49;52.28
61682;BME280;47577;43.610;25.010;2023-02-19T00:03:37;100444.63;;;10.55;51.50
61682;BME280;47577;43.610;25.010;2023-02-19T00:06:07;100440.31;;;10.53;52.12
61682;BME280;47577;43.610;25.010;2023-02-19T00:08:34;100433.75;;;10.63;51.21
61682;BME280;47577;43.610;25.010;2023-02-19T00:11:05;100433.47;;;10.72;51.69
61682;BME280;47577;43.610;25.010;2023-02-19T00:13:35;100433.28;;;10.77;50.91
61682;BME280;47577;43.610;25.010;2023-02-19T00:16:08;100442.94;;;10.79;50.64
61682;BME280;47577;43.610;25.010;2023-02-19T00:18:36;100430.63;;;10.77;50.71
61682;BME280;47577;43.610;25.010;2023-02-19T00:21:02;100429.69;;;10.78;51.08
61682;BME280;47577;43.610;25.010;2023-02-19T00:23:28;100425.34;;;10.75;50.42
61682;BME280;47577;43.610;25.010;2023-02-19T00:25:54;100409.63;;;10.69;50.68
61682;BME280;47577;43.610;25.010;2023-02-19T00:28:20;100418.59;;;10.65;50.27
61682;BME280;47577;43.610;25.010;2023-02-19T00:30:46;100416.81;;;10.66;51.53
61682;BME280;47577;43.610;25.010;2023-02-19T00:33:12;100412.47;;;10.63;51.01
61682;BME280;47577;43.610;25.010;2023-02-19T00:35:37;100408.88;;;10.64;50.78
61682;BME280;47577;43.610;25.010;2023-02-19T00:38:03;100417.75;;;10.65;50.95
61682;BME280;47577;43.610;25.010;2023-02-19T00:40:29;100401.03;;;10.61;50.61
61682;BME280;47577;43.610;25.010;2023-02-19T00:42:55;100415.19;;;10.61;50.66
61682;BME280;47577;43.610;25.010;2023-02-19T00:45:21;100407.38;;;10.57;50.17
61682;BME280;47577;43.610;25.010;2023-02-19T00:47:46;100408.28;;;10.56;50.30
61682;BME280;47577;43.610;25.010;2023-02-19T00:50:12;100425.16;;;10.55;50.67
61682;BME280;47577;43.610;25.010;2023-02-19T00:52:37;100418.09;;;10.54;50.90
61682;BME280;47577;43.610;25.010;2023-02-19T00:55:03;100406.47;;;10.58;51.10
61682;BME280;47577;43.610;25.010;2023-02-19T00:57:29;100413.66;;;10.54;50.72
61682;BME280;47577;43.610;25.010;2023-02-19T00:59:55;100418.16;;;10.52;50.96
61682;BME280;47577;43.610;25.010;2023-02-19T01:02:20;100420.91;;;10.49;50.85
61682;BME280;47577;43.610;25.010;2023-02-19T01:04:46;100428.97;;;10.46;50.48
61682;BME280;47577;43.610;25.010;2023-02-19T01:07:11;100418.69;;;10.37;51.31
61682;BME280;47577;43.610;25.010;2023-02-19T01:09:37;100418.72;;;10.35;51.22
61682;BME280;47577;43.610;25.010;2023-02-19T01:12:04;100427.56;;;10.36;51.22
61682;BME280;47577;43.610;25.010;2023-02-19T01:14:30;100436.34;;;10.38;51.16
61682;BME280;47577;43.610;25.010;2023-02-19T01:16:56;100438.19;;;10.36;51.21
61682;BME280;47577;43.610;25.010;2023-02-19T01:19:21;100439.16;;;10.32;51.47
61682;BME280;47577;43.610;25.010;2023-02-19T01:21:47;100432.22;;;10.28;51.46
61682;BME280;47577;43.610;25.010;2023-02-19T01:24:12;100439.25;;;10.30;51.85
61682;BME280;47577;43.610;25.010;2023-02-19T01:26:38;100438.44;;;10.27;51.31
61682;BME280;47577;43.610;25.010;2023-02-19T01:29:05;100431.44;;;10.24;51.34
61682;BME280;47577;43.610;25.010;2023-02-19T01:31:31;100440.22;;;10.26;51.94
61682;BME280;47577;43.610;25.010;2023-02-19T01:34:01;100434.88;;;10.28;51.94
61682;BME280;47577;43.610;25.010;2023-02-19T01:36:29;100433.16;;;10.25;51.85
61682;BME280;47577;43.610;25.010;2023-02-19T01:39:03;100439.66;;;10.16;52.60
61682;BME280;47577;43.610;25.010;2023-02-19T01:41:30;100443.31;;;10.12;52.35
61682;BME280;47577;43.610;25.010;2023-02-19T01:44:03;100433.00;;;10.03;52.35
61682;BME280;47577;43.610;25.010;2023-02-19T01:46:34;100454.13;;;10.07;52.11
61682;BME280;47577;43.610;25.010;2023-02-19T01:49:15;100450.28;;;10.16;51.53
61682;BME280;47577;43.610;25.010;2023-02-19T01:51:46;100438.16;;;10.07;51.75
61682;BME280;47577;43.610;25.010;2023-02-19T01:54:15;100424.31;;;9.98;52.87
61682;BME280;47577;43.610;25.010;2023-02-19T01:56:43;100430.78;;;9.87;53.03
61682;BME280;47577;43.610;25.010;2023-02-19T01:59:11;100429.13;;;9.85;52.68
61682;BME280;47577;43.610;25.010;2023-02-19T02:01:40;100427.47;;;9.81;53.33
61682;BME280;47577;43.610;25.010;2023-02-19T02:04:07;100433.94;;;9.72;54.12
61682;BME280;47577;43.610;25.010;2023-02-19T02:06:49;100435.91;;;9.65;53.35
61682;BME280;47577;43.610;25.010;2023-02-19T02:09:19;100422.41;;;9.72;54.77
61682;BME280;47577;43.610;25.010;2023-02-19T02:12:04;100427.00;;;9.66;55.15
61682;BME280;47577;43.610;25.010;2023-02-19T02:14:33;100424.34;;;9.66;54.71
61682;BME280;47577;43.610;25.010;2023-02-19T02:31:23;100401.00;;;9.78;54.44
61682;BME280;47577;43.610;25.010;2023-02-19T02:33:56;100398.69;;;9.95;55.21
61682;BME280;47577;43.610;25.010;2023-02-19T02:36:29;100390.50;;;10.03;53.46
61682;BME280;47577;43.610;25.010;2023-02-19T02:38:56;100383.88;;;10.16;52.46
61682;BME280;47577;43.610;25.010;2023-02-19T02:41:23;100394.97;;;10.29;52.68
61682;BME280;47577;43.610;25.010;2023-02-19T02:43:49;100384.84;;;10.42;51.82
61682;BME280;47577;43.610;25.010;2023-02-19T02:46:23;100389.66;;;10.56;51.78
61682;BME280;47577;43.610;25.010;2023-02-19T02:48:55;100378.13;;;10.57;52.31
61682;BME280;47577;43.610;25.010;2023-02-19T02:56:40;100382.97;;;10.96;50.12
61682;BME280;47577;43.610;25.010;2023-02-19T02:59:10;100377.38;;;11.04;49.52
61682;BME280;47577;43.610;25.010;2023-02-19T03:01:42;100377.81;;;11.16;49.98
61682;BME280;47577;43.610;25.010;2023-02-19T03:04:44;100377.09;;;11.35;49.65
61682;BME280;47577;43.610;25.010;2023-02-19T03:08:10;100386.91;;;11.58;48.77
61682;BME280;47577;43.610;25.010;2023-02-19T03:11:19;100408.97;;;11.62;48.09
61682;BME280;47577;43.610;25.010;2023-02-19T03:14:47;100399.91;;;11.66;48.05
61682;BME280;47577;43.610;25.010;2023-02-19T03:17:43;100392.34;;;11.55;48.52
61682;BME280;47577;43.610;25.010;2023-02-19T03:20:42;100407.56;;;11.51;48.60
61682;BME280;47577;43.610;25.010;2023-02-19T03:23:10;100404.94;;;11.50;48.73
61682;BME280;47577;43.610;25.010;2023-02-19T03:25:38;100439.81;;;11.44;48.83
61682;BME280;47577;43.610;25.010;2023-02-19T03:28:26;100398.53;;;11.32;49.25
61682;BME280;47577;43.610;25.010;2023-02-19T03:31:12;100394.09;;;11.32;48.88
61682;BME280;47577;43.610;25.010;2023-02-19T03:33:41;100385.31;;;11.29;49.11
61682;BME280;47577;43.610;25.010;2023-02-19T03:36:12;100384.50;;;11.27;49.17
61682;BME280;47577;43.610;25.010;2023-02-19T03:38:51;100381.22;;;11.20;49.16
61682;BME280;47577;43.610;25.010;2023-02-19T03:44:05;100389.94;;;11.24;48.98
61682;BME280;47577;43.610;25.010;2023-02-19T03:46:44;100386.53;;;11.20;49.69
61682;BME280;47577;43.610;25.010;2023-02-19T03:49:23;100392.03;;;11.15;49.95
61682;BME280;47577;43.610;25.010;2023-02-19T03:56:57;100400.94;;;10.89;51.01
61682;BME280;47577;43.610;25.010;2023-02-19T03:59:40;100400.25;;;10.84;50.51
61682;BME280;47577;43.610;25.010;2023-02-19T04:02:11;100390.50;;;10.83;51.18
61682;BME280;47577;43.610;25.010;2023-02-19T04:07:07;100412.78;;;10.81;51.06
61682;BME280;47577;43.610;25.010;2023-02-19T04:09:40;100430.41;;;10.83;50.76
61682;BME280;47577;43.610;25.010;2023-02-19T04:12:17;100429.41;;;10.87;51.24
61682;BME280;47577;43.610;25.010;2023-02-19T04:14:53;100440.34;;;10.78;52.10
61682;BME280;47577;43.610;25.010;2023-02-19T04:17:26;100457.06;;;10.82;51.43
61682;BME280;47577;43.610;25.010;2023-02-19T04:19:56;100455.44;;;10.77;51.94
61682;BME280;47577;43.610;25.010;2023-02-19T04:22:23;100462.19;;;10.88;52.51
61682;BME280;47577;43.610;25.010;2023-02-19T04:24:52;100465.53;;;10.93;52.23
61682;BME280;47577;43.610;25.010;2023-02-19T04:27:20;100482.72;;;10.56;53.05
61682;BME280;47577;43.610;25.010;2023-02-19T04:29:45;100482.78;;;10.81;52.61
61682;BME280;47577;43.610;25.010;2023-02-19T04:32:31;100471.69;;;10.68;52.34
61682;BME280;47577;43.610;25.010;2023-02-19T04:34:57;100485.31;;;10.57;52.80
61682;BME280;47577;43.610;25.010;2023-02-19T04:37:23;100486.97;;;10.61;53.77
61682;BME280;47577;43.610;25.010;2023-02-19T04:39:48;100490.59;;;10.59;53.52
61682;BME280;47577;43.610;25.010;2023-02-19T04:42:14;100484.53;;;10.55;53.68
61682;BME280;47577;43.610;25.010;2023-02-19T04:44:40;100488.31;;;10.48;54.19
61682;BME280;47577;43.610;25.010;2023-02-19T04:47:06;100511.44;;;10.45;53.86
61682;BME280;47577;43.610;25.010;2023-02-19T04:49:40;100507.38;;;10.33;55.33
61682;BME280;47577;43.610;25.010;2023-02-19T04:52:06;100503.53;;;10.13;55.11
61682;BME280;47577;43.610;25.010;2023-02-19T04:54:32;100509.66;;;10.15;54.57
61682;BME280;47577;43.610;25.010;2023-02-19T04:56:58;100512.44;;;10.11;55.67
61682;BME280;47577;43.610;25.010;2023-02-19T04:59:23;100502.25;;;9.97;55.48
61682;BME280;47577;43.610;25.010;2023-02-19T05:01:49;100515.44;;;10.00;55.88
61682;BME280;47577;43.610;25.010;2023-02-19T05:04:18;100509.41;;;9.95;56.74
61682;BME280;47577;43.610;25.010;2023-02-19T05:06:44;100513.00;;;9.92;55.83
61682;BME280;47577;43.610;25.010;2023-02-19T05:09:10;100518.53;;;9.84;56.16
61682;BME280;47577;43.610;25.010;2023-02-19T05:11:39;100536.13;;;9.88;57.06
61682;BME280;47577;43.610;25.010;2023-02-19T05:14:04;100529.78;;;9.93;57.55
61682;BME280;47577;43.610;25.010;2023-02-19T05:16:30;100529.75;;;9.94;56.83
61682;BME280;47577;43.610;25.010;2023-02-19T05:18:58;100535.34;;;9.85;56.63
61682;BME280;47577;43.610;25.010;2023-02-19T05:21:26;100549.38;;;9.90;57.63
61682;BME280;47577;43.610;25.010;2023-02-19T05:23:55;100544.31;;;9.81;57.67
61682;BME280;47577;43.610;25.010;2023-02-19T05:26:22;100563.78;;;9.80;56.80
61682;BME280;47577;43.610;25.010;2023-02-19T05:28:50;100564.59;;;9.83;58.47
61682;BME280;47577;43.610;25.010;2023-02-19T05:31:17;100564.28;;;9.94;57.39
61682;BME280;47577;43.610;25.010;2023-02-19T05:33:46;100568.66;;;9.97;57.65
61682;BME280;47577;43.610;25.010;2023-02-19T05:36:16;100576.63;;;9.97;57.96
61682;BME280;47577;43.610;25.010;2023-02-19T05:38:42;100579.16;;;10.01;58.25
61682;BME280;47577;43.610;25.010;2023-02-19T05:41:13;100579.41;;;9.92;58.44
61682;BME280;47577;43.610;25.010;2023-02-19T05:43:44;100595.34;;;9.92;58.82
61682;BME280;47577;43.610;25.010;2023-02-19T05:46:12;100592.84;;;9.86;58.26
61682;BME280;47577;43.610;25.010;2023-02-19T05:48:38;100608.69;;;9.89;59.30
61682;BME280;47577;43.610;25.010;2023-02-19T05:51:09;100612.38;;;9.85;58.43
61682;BME280;47577;43.610;25.010;2023-02-19T05:53:36;100612.06;;;9.96;59.47
61682;BME280;47577;43.610;25.010;2023-02-19T05:56:02;100610.38;;;9.93;57.72
61682;BME280;47577;43.610;25.010;2023-02-19T05:58:28;100616.81;;;10.16;57.76
61682;BME280;47577;43.610;25.010;2023-02-19T06:00:54;100622.19;;;10.14;57.58
61682;BME280;47577;43.610;25.010;2023-02-19T06:03:38;100626.38;;;10.21;57.72
61682;BME280;47577;43.610;25.010;2023-02-19T06:06:12;100628.09;;;10.24;58.26
61682;BME280;47577;43.610;25.010;2023-02-19T06:08:38;100625.31;;;10.29;57.85
61682;BME280;47577;43.610;25.010;2023-02-19T06:11:04;100622.66;;;10.29;58.76
61682;BME280;47577;43.610;25.010;2023-02-19T06:13:33;100618.09;;;10.34;58.74
61682;BME280;47577;43.610;25.010;2023-02-19T06:16:03;100628.69;;;10.35;59.12
61682;BME280;47577;43.610;25.010;2023-02-19T06:18:31;100612.78;;;10.34;58.41
61682;BME280;47577;43.610;25.010;2023-02-19T06:21:08;100630.03;;;10.50;59.30
61682;BME280;47577;43.610;25.010;2023-02-19T06:23:35;100625.38;;;10.57;58.83
61682;BME280;47577;43.610;25.010;2023-02-19T06:26:15;100633.94;;;10.67;58.17
61682;BME280;47577;43.610;25.010;2023-02-19T06:28:43;100629.13;;;10.79;57.30
61682;BME280;47577;43.610;25.010;2023-02-19T06:31:09;100634.75;;;10.98;57.92
61682;BME280;47577;43.610;25.010;2023-02-19T06:33:36;100634.75;;;10.98;57.40
61682;BME280;47577;43.610;25.010;2023-02-19T06:36:14;100647.44;;;11.17;56.99
61682;BME280;47577;43.610;25.010;2023-02-19T06:38:40;100638.13;;;11.30;56.48
61682;BME280;47577;43.610;25.010;2023-02-19T06:41:07;100631.59;;;11.41;56.84
61682;BME280;47577;43.610;25.010;2023-02-19T06:43:34;100630.66;;;11.42;56.86
61682;BME280;47577;43.610;25.010;2023-02-19T06:46:00;100633.31;;;11.68;56.11
61682;BME280;47577;43.610;25.010;2023-02-19T06:48:28;100639.25;;;11.77;55.66
61682;BME280;47577;43.610;25.010;2023-02-19T06:51:06;100631.84;;;11.85;55.47
61682;BME280;47577;43.610;25.010;2023-02-19T06:53:32;100632.47;;;11.93;55.67
61682;BME280;47577;43.610;25.010;2023-02-19T06:56:06;100635.59;;;12.06;55.06
61682;BME280;47577;43.610;25.010;2023-02-19T06:58:33;100647.34;;;12.00;55.17
61682;BME280;47577;43.610;25.010;2023-02-19T07:00:59;100635.19;;;12.17;55.19
61682;BME280;47577;43.610;25.010;2023-02-19T07:03:26;100636.41;;;12.32;55.23
61682;BME280;47577;43.610;25.010;2023-02-19T07:05:52;100635.50;;;12.56;54.59
61682;BME280;47577;43.610;25.010;2023-02-19T07:08:18;100640.47;;;12.66;53.60
61682;BME280;47577;43.610;25.010;2023-02-19T07:10:44;100634.63;;;12.56;54.15
61682;BME280;47577;43.610;25.010;2023-02-19T07:13:10;100643.47;;;12.80;53.72
61682;BME280;47577;43.610;25.010;2023-02-19T07:15:36;100649.09;;;12.72;53.41
61682;BME280;47577;43.610;25.010;2023-02-19T07:18:02;100640.63;;;12.85;53.19
61682;BME280;47577;43.610;25.010;2023-02-19T07:20:29;100660.97;;;12.87;54.20
61682;BME280;47577;43.610;25.010;2023-02-19T07:22:56;100653.53;;;12.95;53.25
61682;BME280;47577;43.610;25.010;2023-02-19T07:25:22;100659.13;;;13.11;52.15
61682;BME280;47577;43.610;25.010;2023-02-19T07:27:47;100641.06;;;13.18;52.52
61682;BME280;47577;43.610;25.010;2023-02-19T07:30:13;100639.13;;;13.22;53.07
61682;BME280;47577;43.610;25.010;2023-02-19T07:32:42;100630.06;;;13.26;52.81
61682;BME280;47577;43.610;25.010;2023-02-19T07:35:10;100647.66;;;13.31;53.49
61682;BME280;47577;43.610;25.010;2023-02-19T07:37:36;100629.75;;;13.35;52.20
61682;BME280;47577;43.610;25.010;2023-02-19T07:40:02;100636.09;;;13.53;51.86
61682;BME280;47577;43.610;25.010;2023-02-19T07:42:29;100652.81;;;13.58;52.74
61682;BME280;47577;43.610;25.010;2023-02-19T07:44:54;100640.91;;;13.65;50.97
61682;BME280;47577;43.610;25.010;2023-02-19T07:47:23;100661.69;;;13.79;51.32
61682;BME280;47577;43.610;25.010;2023-02-19T07:49:49;100631.84;;;13.90;50.65
61682;BME280;47577;43.610;25.010;2023-02-19T07:52:15;100644.13;;;13.94;50.50
61682;BME280;47577;43.610;25.010;2023-02-19T07:54:43;100634.78;;;14.04;50.35
61682;BME280;47577;43.610;25.010;2023-02-19T07:57:09;100643.53;;;14.08;49.55
61682;BME280;47577;43.610;25.010;2023-02-19T07:59:35;100657.81;;;14.07;50.44
61682;BME280;47577;43.610;25.010;2023-02-19T08:02:01;100676.47;;;14.29;49.54
61682;BME280;47577;43.610;25.010;2023-02-19T08:04:48;100634.72;;;14.25;48.76
61682;BME280;47577;43.610;25.010;2023-02-19T08:07:16;100640.09;;;14.25;49.91
61682;BME280;47577;43.610;25.010;2023-02-19T08:09:45;100645.81;;;14.36;50.27
61682;BME280;47577;43.610;25.010;2023-02-19T08:12:31;100608.88;;;14.44;49.70
61682;BME280;47577;43.610;25.010;2023-02-19T08:15:15;100654.78;;;14.54;48.60
61682;BME280;47577;43.610;25.010;2023-02-19T08:17:41;100619.16;;;14.54;49.00
61682;BME280;47577;43.610;25.010;2023-02-19T08:20:16;100628.50;;;14.83;48.61
61682;BME280;47577;43.610;25.010;2023-02-19T08:22:42;100625.97;;;14.99;47.60
61682;BME280;47577;43.610;25.010;2023-02-19T08:25:07;100640.78;;;15.06;47.55
61682;BME280;47577;43.610;25.010;2023-02-19T08:27:33;100635.31;;;15.27;48.36
61682;BME280;47577;43.610;25.010;2023-02-19T08:29:59;100645.44;;;15.39;46.79
61682;BME280;47577;43.610;25.010;2023-02-19T08:32:24;100656.97;;;15.22;47.41
61682;BME280;47577;43.610;25.010;2023-02-19T08:34:53;100651.31;;;15.28;47.20
61682;BME280;47577;43.610;25.010;2023-02-19T08:37:19;100638.03;;;15.44;46.93
61682;BME280;47577;43.610;25.010;2023-02-19T08:39:44;100638.97;;;15.61;45.81
61682;BME280;47577;43.610;25.010;2023-02-19T08:42:10;100618.56;;;15.58;46.12
61682;BME280;47577;43.610;25.010;2023-02-19T08:44:36;100635.56;;;15.76;46.17
61682;BME280;47577;43.610;25.010;2023-02-19T08:47:03;100642.75;;;15.74;45.50
61682;BME280;47577;43.610;25.010;2023-02-19T08:49:29;100627.25;;;15.81;44.63
61682;BME280;47577;43.610;25.010;2023-02-19T08:51:54;100611.81;;;15.86;45.09
61682;BME280;47577;43.610;25.010;2023-02-19T08:54:20;100618.66;;;15.92;45.26
61682;BME280;47577;43.610;25.010;2023-02-19T08:56:46;100626.31;;;15.82;45.81
61682;BME280;47577;43.610;25.010;2023-02-19T08:59:12;100623.00;;;15.94;44.90
61682;BME280;47577;43.610;25.010;2023-02-19T09:01:37;100621.03;;;15.98;43.88
61682;BME280;47577;43.610;25.010;2023-02-19T09:04:07;100628.75;;;15.86;43.53
61682;BME280;47577;43.610;25.010;2023-02-19T09:06:34;100610.75;;;16.06;44.21
61682;BME280;47577;43.610;25.010;2023-02-19T09:09:00;100590.59;;;15.99;44.39
61682;BME280;47577;43.610;25.010;2023-02-19T09:11:26;100614.44;;;16.03;44.16
61682;BME280;47577;43.610;25.010;2023-02-19T09:13:55;100599.09;;;16.23;43.79
61682;BME280;47577;43.610;25.010;2023-02-19T09:16:21;100600.31;;;16.51;43.31
61682;BME280;47577;43.610;25.010;2023-02-19T09:18:47;100641.63;;;16.31;42.50
61682;BME280;47577;43.610;25.010;2023-02-19T09:21:13;100610.28;;;16.15;42.25
61682;BME280;47577;43.610;25.010;2023-02-19T09:23:39;100608.19;;;16.20;43.20
61682;BME280;47577;43.610;25.010;2023-02-19T09:26:05;100596.91;;;16.31;42.75
61682;BME280;47577;43.610;25.010;2023-02-19T09:28:33;100590.84;;;16.43;42.26
61682;BME280;47577;43.610;25.010;2023-02-19T09:31:07;100615.69;;;16.47;42.53
61682;BME280;47577;43.610;25.010;2023-02-19T09:33:33;100614.38;;;16.38;41.58
61682;BME280;47577;43.610;25.010;2023-02-19T09:35:59;100609.34;;;16.32;42.56
61682;BME280;47577;43.610;25.010;2023-02-19T09:38:26;100607.47;;;16.50;42.86
61682;BME280;47577;43.610;25.010;2023-02-19T09:40:54;100592.66;;;16.43;42.59
61682;BME280;47577;43.610;25.010;2023-02-19T09:43:23;100608.44;;;16.81;42.03
61682;BME280;47577;43.610;25.010;2023-02-19T09:46:20;100604.66;;;17.01;42.13
61682;BME280;47577;43.610;25.010;2023-02-19T09:48:47;100615.38;;;16.69;41.44
61682;BME280;47577;43.610;25.010;2023-02-19T09:51:15;100604.28;;;16.75;40.88
61682;BME280;47577;43.610;25.010;2023-02-19T09:53:43;100612.16;;;16.78;41.35
61682;BME280;47577;43.610;25.010;2023-02-19T09:56:12;100578.72;;;16.84;40.92
61682;BME280;47577;43.610;25.010;2023-02-19T09:58:46;100602.28;;;16.63;40.33
61682;BME280;47577;43.610;25.010;2023-02-19T10:01:13;100590.59;;;16.80;39.39
61682;BME280;47577;43.610;25.010;2023-02-19T10:03:41;100600.56;;;17.10;39.83
61682;BME280;47577;43.610;25.010;2023-02-19T10:06:24;100580.72;;;17.12;39.33
61682;BME280;47577;43.610;25.010;2023-02-19T10:08:54;100581.50;;;17.14;40.17
61682;BME280;47577;43.610;25.010;2023-02-19T10:11:21;100560.06;;;17.29;40.00
61682;BME280;47577;43.610;25.010;2023-02-19T10:13:48;100593.31;;;17.42;38.51
61682;BME280;47577;43.610;25.010;2023-02-19T10:16:24;100547.31;;;17.32;40.07
61682;BME280;47577;43.610;25.010;2023-02-19T10:18:51;100552.06;;;17.58;39.60
61682;BME280;47577;43.610;25.010;2023-02-19T10:21:25;100550.06;;;17.61;38.67
61682;BME280;47577;43.610;25.010;2023-02-19T10:23:57;100547.06;;;17.51;38.95
61682;BME280;47577;43.610;25.010;2023-02-19T10:26:24;100545.16;;;17.68;38.57
61682;BME280;47577;43.610;25.010;2023-02-19T10:28:49;100550.16;;;17.60;39.31
61682;BME280;47577;43.610;25.010;2023-02-19T10:31:18;100555.31;;;17.48;38.47
61682;BME280;47577;43.610;25.010;2023-02-19T10:33:54;100558.41;;;17.26;39.43
61682;BME280;47577;43.610;25.010;2023-02-19T10:36:28;100539.78;;;17.23;39.64
61682;BME280;47577;43.610;25.010;2023-02-19T10:38:55;100532.66;;;17.08;40.39
61682;BME280;47577;43.610;25.010;2023-02-19T10:41:23;100539.59;;;17.26;38.92
61682;BME280;47577;43.610;25.010;2023-02-19T10:44:13;100531.66;;;17.09;39.51
61682;BME280;47577;43.610;25.010;2023-02-19T10:46:46;100534.25;;;16.96;39.89
61682;BME280;47577;43.610;25.010;2023-02-19T10:49:21;100525.34;;;17.10;38.78
61682;BME280;47577;43.610;25.010;2023-02-19T10:51:48;100535.41;;;17.06;38.43
61682;BME280;47577;43.610;25.010;2023-02-19T10:54:33;100534.31;;;16.94;38.19
61682;BME280;47577;43.610;25.010;2023-02-19T10:59:58;100518.72;;;17.01;38.62
61682;BME280;47577;43.610;25.010;2023-02-19T11:02:26;100521.13;;;17.06;38.84
61682;BME280;47577;43.610;25.010;2023-02-19T11:05:10;100515.47;;;17.10;38.76
61682;BME280;47577;43.610;25.010;2023-02-19T11:07:53;100522.50;;;17.13;38.85
61682;BME280;47577;43.610;25.010;2023-02-19T11:10:37;100526.28;;;17.09;39.05
61682;BME280;47577;43.610;25.010;2023-02-19T11:13:05;100516.31;;;17.27;39.67
61682;BME280;47577;43.610;25.010;2023-02-19T11:15:35;100495.00;;;17.52;39.23
61682;BME280;47577;43.610;25.010;2023-02-19T11:20:38;100517.25;;;17.26;39.33
61682;BME280;47577;43.610;25.010;2023-02-19T11:23:18;100504.69;;;17.41;38.92
61682;BME280;47577;43.610;25.010;2023-02-19T11:25:47;100508.19;;;17.71;38.89
61682;BME280;47577;43.610;25.010;2023-02-19T11:28:36;100512.53;;;17.60;39.50
61682;BME280;47577;43.610;25.010;2023-02-19T11:33:58;100503.91;;;17.69;38.33
61682;BME280;47577;43.610;25.010;2023-02-19T11:36:27;100495.72;;;17.85;40.04
61682;BME280;47577;43.610;25.010;2023-02-19T11:38:54;100495.56;;;18.02;38.01
61682;BME280;47577;43.610;25.010;2023-02-19T11:49:14;100472.63;;;18.66;37.40
61682;BME280;47577;43.610;25.010;2023-02-19T11:51:53;100468.03;;;18.68;37.92
61682;BME280;47577;43.610;25.010;2023-02-19T12:03:40;100462.66;;;18.80;38.38
61682;BME280;47577;43.610;25.010;2023-02-19T12:05:48;100460.66;;;18.84;37.72
61682;BME280;47577;43.610;25.010;2023-02-19T12:08:48;100479.91;;;18.78;38.35
61682;BME280;47577;43.610;25.010;2023-02-19T12:20:02;100432.78;;;19.11;37.46
61682;BME280;47577;43.610;25.010;2023-02-19T12:22:32;100435.06;;;19.04;37.60
61682;BME280;47577;43.610;25.010;2023-02-19T12:25:24;100448.94;;;18.58;38.17
61682;BME280;47577;43.610;25.010;2023-02-19T12:28:28;100438.53;;;18.79;37.53
61682;BME280;47577;43.610;25.010;2023-02-19T12:42:47;100409.38;;;18.86;38.07
61682;BME280;47577;43.610;25.010;2023-02-19T12:45:07;100401.97;;;19.15;37.37
61682;BME280;47577;43.610;25.010;2023-02-19T12:47:41;100401.00;;;18.63;39.14
61682;BME280;47577;43.610;25.010;2023-02-19T12:50:26;100403.34;;;18.55;38.30
61682;BME280;47577;43.610;25.010;2023-02-19T12:53:06;100402.97;;;18.34;39.15
61682;BME280;47577;43.610;25.010;2023-02-19T12:55:41;100393.50;;;18.41;39.45
61682;BME280;47577;43.610;25.010;2023-02-19T12:58:13;100387.06;;;18.16;39.43
61682;BME280;47577;43.610;25.010;2023-02-19T13:00:48;100405.41;;;18.24;39.61
61682;BME280;47577;43.610;25.010;2023-02-19T13:03:34;100403.41;;;18.13;38.73
61682;BME280;47577;43.610;25.010;2023-02-19T13:06:06;100388.34;;;17.96;39.45
61682;BME280;47577;43.610;25.010;2023-02-19T13:09:02;100396.41;;;17.96;39.98
61682;BME280;47577;43.610;25.010;2023-02-19T13:11:35;100393.25;;;17.89;39.87
61682;BME280;47577;43.610;25.010;2023-02-19T13:14:10;100388.09;;;17.58;41.15
61682;BME280;47577;43.610;25.010;2023-02-19T13:16:43;100383.56;;;17.58;40.69
61682;BME280;47577;43.610;25.010;2023-02-19T13:19:10;100387.03;;;17.46;40.80
61682;BME280;47577;43.610;25.010;2023-02-19T13:21:40;100384.44;;;17.30;41.08
61682;BME280;47577;43.610;25.010;2023-02-19T13:24:34;100373.13;;;17.39;41.79
61682;BME280;47577;43.610;25.010;2023-02-19T13:27:27;100381.94;;;17.55;41.34
61682;BME280;47577;43.610;25.010;2023-02-19T13:36:03;100369.72;;;18.20;40.89
61682;BME280;47577;43.610;25.010;2023-02-19T13:38:48;100365.53;;;18.43;39.34
61682;BME280;47577;43.610;25.010;2023-02-19T13:41:25;100375.88;;;18.62;39.14
61682;BME280;47577;43.610;25.010;2023-02-19T13:43:58;100363.50;;;18.60;38.75
61682;BME280;47577;43.610;25.010;2023-02-19T13:46:34;100350.38;;;18.68;39.30
61682;BME280;47577;43.610;25.010;2023-02-19T13:51:59;100356.16;;;18.89;38.81
61682;BME280;47577;43.610;25.010;2023-02-19T13:54:33;100343.97;;;18.84;38.92
61682;BME280;47577;43.610;25.010;2023-02-19T13:59:55;100360.75;;;18.74;38.29
61682;BME280;47577;43.610;25.010;2023-02-19T14:04:53;100343.22;;;19.07;37.36
61682;BME280;47577;43.610;25.010;2023-02-19T14:09:51;100338.16;;;18.90;37.68
61682;BME280;47577;43.610;25.010;2023-02-19T14:12:20;100337.31;;;19.02;37.59
61682;BME280;47577;43.610;25.010;2023-02-19T14:14:54;100332.88;;;18.88;37.54
61682;BME280;47577;43.610;25.010;2023-02-19T14:25:35;100328.97;;;18.26;39.36
61682;BME280;47577;43.610;25.010;2023-02-19T14:28:19;100334.88;;;18.32;39.50
61682;BME280;47577;43.610;25.010;2023-02-19T14:31:08;100322.72;;;17.99;39.39
61682;BME280;47577;43.610;25.010;2023-02-19T14:33:38;100311.63;;;17.90;40.20
61682;BME280;47577;43.610;25.010;2023-02-19T14:38:47;100308.03;;;18.17;40.08
61682;BME280;47577;43.610;25.010;2023-02-19T14:41:15;100310.59;;;18.06;39.73
61682;BME280;47577;43.610;25.010;2023-02-19T14:43:43;100304.22;;;17.80;39.58